createdAt,value
2018-11-10T00:00:25.647Z,55.8
2018-11-10T00:01:15.949Z,55.8
2018-11-10T00:02:06.249Z,55.8
2018-11-10T00:02:56.609Z,55.8
2018-11-10T00:03:46.372Z,55.8
2018-11-10T00:04:36.154Z,55.8
2018-11-10T00:05:26.332Z,55.8
2018-11-10T00:06:16.799Z,55.8
2018-11-10T00:07:05.819Z,55.8
2018-11-10T00:25:18.403Z,55.6
2018-11-10T00:26:08.977Z,55.6
2018-11-10T00:26:57.850Z,55.6
2018-11-10T00:27:48.775Z,55.6
2018-11-10T00:28:38.663Z,55.6
2018-11-10T00:29:28.610Z,55.6
2018-11-10T00:30:19.042Z,55.6
2018-11-10T00:31:09.038Z,55.6
2018-11-10T00:31:58.384Z,55.6
2018-11-10T00:32:48.852Z,55.6
2018-11-10T00:33:38.932Z,55.6
2018-11-10T00:34:29.883Z,55.6
2018-11-10T00:35:18.959Z,55.6
2018-11-10T00:36:09.190Z,55.6
2018-11-10T00:36:59.129Z,55.6
2018-11-10T00:37:49.176Z,55.6
2018-11-10T00:38:39.242Z,55.6
2018-11-10T00:39:29.111Z,55.5
2018-11-10T00:40:19.065Z,55.5
2018-11-10T00:41:08.434Z,55.5
2018-11-10T00:41:58.978Z,55.5
2018-11-10T00:42:49.449Z,55.5
2018-11-10T00:43:39.321Z,55.5
2018-11-10T00:44:29.449Z,55.5
2018-11-10T00:45:19.054Z,55.5
2018-11-10T00:46:09.132Z,55.5
2018-11-10T00:46:59.586Z,55.5
2018-11-10T00:47:48.814Z,55.4
2018-11-10T00:48:40.009Z,55.4
2018-11-10T00:49:30.370Z,55.4
2018-11-10T00:50:19.848Z,55.4
2018-11-10T00:51:10.397Z,55.4
2018-11-10T00:51:59.724Z,55.4
2018-11-10T00:52:50.886Z,55.4
2018-11-10T00:53:39.746Z,55.4
2018-11-10T00:54:29.616Z,55.4
2018-11-10T00:55:20.277Z,55.4
2018-11-10T00:56:10.285Z,55.4
2018-11-10T00:57:00.375Z,55.4
2018-11-10T00:57:50.063Z,55.4
2018-11-10T00:58:41.353Z,55.4
2018-11-10T00:59:30.731Z,55.4
2018-11-10T01:00:20.541Z,55.4
2018-11-10T01:01:10.533Z,55.4
2018-11-10T01:02:01.211Z,55.4
2018-11-10T01:02:50.788Z,55.4
2018-11-10T01:03:40.829Z,55.3
2018-11-10T01:04:30.540Z,55.3
2018-11-10T01:05:20.815Z,55.3
2018-11-10T01:06:10.943Z,55.3
2018-11-10T01:07:00.615Z,55.3
2018-11-10T01:07:50.398Z,55.3
2018-11-10T01:08:41.237Z,55.3
2018-11-10T01:09:31.555Z,55.3
2018-11-10T01:10:21.048Z,55.3
2018-11-10T01:11:11.648Z,55.3
2018-11-10T01:12:00.840Z,55.3
2018-11-10T01:12:51.795Z,55.3
2018-11-10T01:13:40.492Z,55.3
2018-11-10T01:14:31.642Z,55.3
2018-11-10T01:15:21.954Z,55.3
2018-11-10T01:16:11.755Z,55.3
2018-11-10T01:17:01.250Z,55.3
2018-11-10T01:17:51.309Z,55.3
2018-11-10T01:18:42.157Z,55.3
2018-11-10T01:19:31.998Z,55.3
2018-11-10T01:20:22.031Z,55.2
2018-11-10T01:21:11.409Z,55.3
2018-11-10T01:22:01.715Z,55.2
2018-11-10T01:22:52.237Z,55.2
2018-11-10T01:23:42.001Z,55.2
2018-11-10T01:24:32.922Z,55.2
2018-11-10T01:25:23.212Z,55.2
2018-11-10T01:26:12.216Z,55.2
2018-11-10T01:27:03.381Z,55.2
2018-11-10T01:27:53.261Z,55.2
2018-11-10T01:28:43.211Z,55.2
2018-11-10T01:29:32.472Z,55.1
2018-11-10T01:30:23.528Z,55.1
2018-11-10T01:31:12.346Z,55.1
2018-11-10T01:32:03.457Z,55.1
2018-11-10T01:32:53.648Z,55.1
2018-11-10T01:33:42.611Z,55.1
2018-11-10T01:34:33.401Z,55.1
2018-11-10T01:35:22.955Z,55.1
2018-11-10T01:36:13.935Z,55.1
2018-11-10T01:37:02.961Z,55.1
2018-11-10T01:37:53.478Z,55.1
2018-11-10T01:38:43.016Z,55.1
2018-11-10T01:39:34.185Z,55.1
2018-11-10T01:40:23.422Z,55.1
2018-11-10T01:41:14.057Z,55.1
2018-11-10T01:42:04.078Z,55.1
2018-11-10T01:42:53.178Z,55.1
2018-11-10T01:43:42.821Z,55.1
2018-11-10T01:44:34.017Z,55.1
2018-11-10T01:45:24.704Z,55.1
2018-11-10T01:46:14.395Z,55.1
2018-11-10T01:47:03.705Z,55
2018-11-10T01:47:53.833Z,55
2018-11-10T01:48:44.391Z,55
2018-11-10T01:49:34.447Z,55
2018-11-10T01:50:24.969Z,55
2018-11-10T01:51:14.906Z,55
2018-11-10T01:52:04.493Z,55
2018-11-10T01:52:55.125Z,55
2018-11-10T01:53:45.489Z,55
2018-11-10T01:54:34.840Z,54.9
2018-11-10T01:55:24.823Z,54.9
2018-11-10T01:56:15.695Z,54.9
2018-11-10T01:57:05.195Z,54.9
2018-11-10T01:57:55.818Z,54.9
2018-11-10T01:58:45.322Z,54.9
2018-11-10T01:59:34.912Z,54.9
2018-11-10T02:00:25.057Z,54.9
2018-11-10T02:01:16.110Z,54.9
2018-11-10T02:02:05.540Z,54.9
2018-11-10T02:02:54.932Z,54.9
2018-11-10T02:03:45.659Z,54.9
2018-11-10T02:04:36.022Z,54.9
2018-11-10T02:05:25.571Z,54.9
2018-11-10T02:06:15.081Z,54.9
2018-11-10T02:07:05.624Z,54.9
2018-11-10T02:07:55.718Z,54.9
2018-11-10T02:08:45.456Z,54.9
2018-11-10T02:09:36.705Z,54.9
2018-11-10T02:10:25.202Z,54.9
2018-11-10T02:11:15.052Z,54.8
2018-11-10T02:12:06.849Z,54.8
2018-11-10T02:12:56.329Z,54.8
2018-11-10T02:13:45.859Z,54.8
2018-11-10T02:14:36.508Z,54.8
2018-11-10T02:15:26.823Z,54.8
2018-11-10T02:16:16.198Z,54.8
2018-11-10T02:17:05.853Z,54.8
2018-11-10T02:17:57.281Z,54.8
2018-11-10T02:18:46.416Z,54.8
2018-11-10T02:19:35.727Z,54.8
2018-11-10T02:20:26.681Z,54.8
2018-11-10T02:21:16.666Z,54.8
2018-11-10T02:22:06.733Z,54.8
2018-11-10T02:22:56.758Z,54.8
2018-11-10T02:23:47.111Z,54.8
2018-11-10T02:24:37.571Z,54.8
2018-11-10T02:25:26.853Z,54.8
2018-11-10T02:26:16.303Z,54.8
2018-11-10T02:27:06.564Z,54.8
2018-11-10T02:27:57.443Z,54.8
2018-11-10T02:28:46.964Z,54.7
2018-11-10T02:29:37.547Z,54.7
2018-11-10T02:30:27.318Z,54.7
2018-11-10T02:31:17.659Z,54.7
2018-11-10T02:32:07.346Z,54.7
2018-11-10T02:32:58.057Z,54.7
2018-11-10T02:33:48.409Z,54.7
2018-11-10T02:34:37.695Z,54.7
2018-11-10T02:35:27.485Z,54.7
2018-11-10T02:36:17.463Z,54.7
2018-11-10T02:37:07.616Z,54.6
2018-11-10T02:37:57.902Z,54.6
2018-11-10T02:38:48.763Z,54.6
2018-11-10T02:39:37.722Z,54.6
2018-11-10T02:40:27.775Z,54.6
2018-11-10T02:41:18.382Z,54.6
2018-11-10T02:42:08.180Z,54.6
2018-11-10T02:42:58.624Z,54.6
2018-11-10T02:43:48.537Z,54.6
2018-11-10T02:44:38.334Z,54.6
2018-11-10T02:45:28.727Z,54.6
2018-11-10T02:46:17.865Z,54.6
2018-11-10T02:47:08.935Z,54.6
2018-11-10T02:47:58.198Z,54.6
2018-11-10T02:48:49.261Z,54.6
2018-11-10T02:49:39.496Z,54.6
2018-11-10T02:50:29.357Z,54.6
2018-11-10T02:51:18.551Z,54.6
2018-11-10T02:52:09.169Z,54.6
2018-11-10T02:52:59.294Z,54.6
2018-11-10T02:53:48.482Z,54.5
2018-11-10T02:54:39.691Z,54.6
2018-11-10T02:55:29.104Z,54.5
2018-11-10T02:56:19.511Z,54.5
2018-11-10T02:57:08.637Z,54.5
2018-11-10T02:57:59.299Z,54.5
2018-11-10T02:58:49.896Z,54.5
2018-11-10T02:59:39.994Z,54.5
2018-11-10T03:00:29.799Z,54.5
2018-11-10T03:01:19.316Z,54.5
2018-11-10T03:02:09.700Z,54.4
2018-11-10T03:02:59.948Z,54.4
2018-11-10T03:03:49.973Z,54.4
2018-11-10T03:04:39.551Z,54.4
2018-11-10T03:05:30.103Z,54.4
2018-11-10T03:06:20.315Z,54.4
2018-11-10T03:07:10.218Z,54.4
2018-11-10T03:08:00.022Z,54.4
2018-11-10T03:08:50.658Z,54.4
2018-11-10T03:09:40.239Z,54.4
2018-11-10T03:10:29.974Z,54.4
2018-11-10T03:11:20.059Z,54.4
2018-11-10T03:12:10.636Z,54.4
2018-11-10T03:13:00.080Z,54.4
2018-11-10T03:13:50.756Z,54.4
2018-11-10T03:14:41.372Z,54.4
2018-11-10T03:15:30.474Z,54.4
2018-11-10T03:16:20.970Z,54.4
2018-11-10T03:17:10.693Z,54.4
2018-11-10T03:18:01.046Z,54.4
2018-11-10T03:18:50.211Z,54.4
2018-11-10T03:19:40.675Z,54.3
2018-11-10T03:20:31.265Z,54.3
2018-11-10T03:21:21.552Z,54.3
2018-11-10T03:22:10.283Z,54.3
2018-11-10T03:23:01.733Z,54.3
2018-11-10T03:23:51.150Z,54.3
2018-11-10T03:24:41.485Z,54.3
2018-11-10T03:25:31.580Z,54.3
2018-11-10T03:26:22.200Z,54.3
2018-11-10T03:27:11.705Z,54.3
2018-11-10T03:28:01.243Z,54.3
2018-11-10T03:28:50.822Z,54.3
2018-11-10T03:29:42.167Z,54.3
2018-11-10T03:30:31.454Z,54.3
2018-11-10T03:31:21.537Z,54.3
2018-11-10T03:32:11.869Z,54.3
2018-11-10T03:33:01.348Z,54.3
2018-11-10T03:33:51.660Z,54.3
2018-11-10T03:34:41.726Z,54.3
2018-11-10T03:35:31.526Z,54.3
2018-11-10T03:36:22.576Z,54.3
2018-11-10T03:37:12.136Z,54.2
2018-11-10T03:38:02.480Z,54.2
2018-11-10T03:38:52.613Z,54.2
2018-11-10T03:39:42.011Z,54.2
2018-11-10T03:40:31.522Z,54.2
2018-11-10T03:41:21.951Z,54.2
2018-11-10T03:42:13.055Z,54.2
2018-11-10T03:43:01.784Z,54.1
2018-11-10T03:43:52.891Z,54.2
2018-11-10T03:44:42.984Z,54.2
2018-11-10T03:45:32.225Z,54.2
2018-11-10T03:46:22.881Z,54.1
2018-11-10T03:47:12.558Z,54.1
2018-11-10T03:48:02.891Z,54.1
2018-11-10T03:48:52.467Z,54.1
2018-11-10T03:49:43.569Z,54.1
2018-11-10T03:50:33.216Z,54.1
2018-11-10T03:51:22.933Z,54.1
2018-11-10T03:52:13.513Z,54.1
2018-11-10T03:53:03.085Z,54.1
2018-11-10T03:53:53.596Z,54.1
2018-11-10T03:54:43.618Z,54.1
2018-11-10T03:55:33.761Z,54.1
2018-11-10T03:56:23.480Z,54.1
2018-11-10T03:57:13.877Z,54.1
2018-11-10T03:58:04.240Z,54.1
2018-11-10T03:58:54.065Z,54.1
2018-11-10T03:59:43.213Z,54.1
2018-11-10T04:00:33.565Z,54
2018-11-10T04:01:23.083Z,54.1
2018-11-10T04:02:14.004Z,54.1
2018-11-10T04:03:03.912Z,54
2018-11-10T04:03:53.545Z,54
2018-11-10T04:04:44.180Z,54
2018-11-10T04:05:34.178Z,54
2018-11-10T04:06:24.287Z,54
2018-11-10T04:07:13.802Z,54
2018-11-10T04:08:04.647Z,54
2018-11-10T04:08:54.450Z,54
2018-11-10T04:09:44.447Z,54
2018-11-10T04:10:35.360Z,53.9
2018-11-10T04:11:25.127Z,53.9
2018-11-10T04:12:15.248Z,53.9
2018-11-10T04:13:04.807Z,53.9
2018-11-10T04:13:54.451Z,53.9
2018-11-10T04:14:44.843Z,53.9
2018-11-10T04:15:35.502Z,53.9
2018-11-10T04:16:25.284Z,53.9
2018-11-10T04:17:14.804Z,53.9
2018-11-10T04:18:04.804Z,53.9
2018-11-10T04:18:55.406Z,53.9
2018-11-10T04:19:45.437Z,53.9
2018-11-10T04:20:35.793Z,53.9
2018-11-10T04:21:25.407Z,53.9
2018-11-10T04:22:14.688Z,53.9
2018-11-10T04:23:04.681Z,53.9
2018-11-10T04:23:55.282Z,53.9
2018-11-10T04:24:45.641Z,53.9
2018-11-10T04:25:36.905Z,53.9
2018-11-10T04:26:25.641Z,53.9
2018-11-10T04:27:15.986Z,53.9
2018-11-10T04:28:05.844Z,53.9
2018-11-10T04:28:56.119Z,53.8
2018-11-10T04:29:46.468Z,53.8
2018-11-10T04:30:35.961Z,53.8
2018-11-10T04:31:25.305Z,53.8
2018-11-10T04:32:16.068Z,53.8
2018-11-10T04:33:06.528Z,53.8
2018-11-10T04:33:56.206Z,53.8
2018-11-10T04:34:46.253Z,53.8
2018-11-10T04:35:36.398Z,53.8
2018-11-10T04:36:26.390Z,53.8
2018-11-10T04:54:33.335Z,53.6
2018-11-10T04:55:23.217Z,53.6
2018-11-10T04:56:13.219Z,53.6
2018-11-10T04:57:03.045Z,53.6
2018-11-10T04:57:53.402Z,53.6
2018-11-10T04:58:43.144Z,53.6
2018-11-10T04:59:33.731Z,53.6
2018-11-10T05:00:23.370Z,53.6
2018-11-10T05:01:13.217Z,53.6
2018-11-10T05:02:03.679Z,53.6
2018-11-10T05:02:54.012Z,53.6
2018-11-10T05:03:43.347Z,53.6
2018-11-10T05:04:33.225Z,53.6
2018-11-10T05:05:23.864Z,53.6
2018-11-10T05:06:13.984Z,53.6
2018-11-10T05:07:03.476Z,53.6
2018-11-10T05:07:54.154Z,53.6
2018-11-10T05:08:44.174Z,53.6
2018-11-10T05:09:33.949Z,53.6
2018-11-10T05:10:24.233Z,53.6
2018-11-10T05:11:13.876Z,53.6
2018-11-10T05:12:04.413Z,53.6
2018-11-10T05:12:54.780Z,53.5
2018-11-10T05:13:44.098Z,53.5
2018-11-10T05:14:34.613Z,53.5
2018-11-10T05:15:25.176Z,53.5
2018-11-10T05:16:14.484Z,53.5
2018-11-10T05:17:04.481Z,53.5
2018-11-10T05:17:54.821Z,53.5
2018-11-10T05:18:44.840Z,53.5
2018-11-10T05:19:35.243Z,53.5
2018-11-10T05:20:24.742Z,53.5
2018-11-10T05:21:14.861Z,53.4
2018-11-10T05:22:04.658Z,53.4
2018-11-10T05:22:54.848Z,53.4
2018-11-10T05:23:45.250Z,53.4
2018-11-10T05:24:34.725Z,53.4
2018-11-10T05:25:25.397Z,53.4
2018-11-10T05:26:15.225Z,53.4
2018-11-10T05:27:05.103Z,53.4
2018-11-10T05:27:55.250Z,53.4
2018-11-10T05:28:46.175Z,53.4
2018-11-10T05:29:35.188Z,53.4
2018-11-10T05:30:25.678Z,53.4
2018-11-10T05:31:17.892Z,53.3
2018-11-10T05:32:05.655Z,53.4
2018-11-10T05:32:55.620Z,53.4
2018-11-10T05:33:46.237Z,53.3
2018-11-10T05:34:35.172Z,53.3
2018-11-10T05:35:26.595Z,53.3
2018-11-10T05:36:16.230Z,53.3
2018-11-10T05:37:06.022Z,53.3
2018-11-10T05:37:56.786Z,53.3
2018-11-10T05:38:46.581Z,53.3
2018-11-10T05:39:36.207Z,53.3
2018-11-10T05:40:26.124Z,53.3
2018-11-10T05:41:15.694Z,53.3
2018-11-10T05:42:06.651Z,53.3
2018-11-10T05:42:56.422Z,53.3
2018-11-10T05:43:45.715Z,53.3
2018-11-10T05:44:37.109Z,53.3
2018-11-10T05:45:26.332Z,53.3
2018-11-10T05:46:16.399Z,53.3
2018-11-10T05:47:06.881Z,53.3
2018-11-10T05:47:56.590Z,53.3
2018-11-10T05:48:46.729Z,53.3
2018-11-10T05:49:37.606Z,53.3
2018-11-10T05:50:26.878Z,53.2
2018-11-10T05:51:17.204Z,53.2
2018-11-10T05:52:07.624Z,53.2
2018-11-10T05:52:57.896Z,53.2
2018-11-10T05:53:46.991Z,53.2
2018-11-10T05:54:36.956Z,53.2
2018-11-10T05:55:27.318Z,53.2
2018-11-10T05:56:17.612Z,53.2
2018-11-10T05:57:08.110Z,53.2
2018-11-10T05:57:57.481Z,53.1
2018-11-10T05:58:48.040Z,53.1
2018-11-10T05:59:37.836Z,53.1
2018-11-10T06:00:27.596Z,53.1
2018-11-10T06:01:17.865Z,53.1
2018-11-10T06:02:08.278Z,53.1
2018-11-10T06:02:57.938Z,53.1
2018-11-10T06:03:48.240Z,53.1
2018-11-10T06:04:37.399Z,53.1
2018-11-10T06:05:27.925Z,53.1
2018-11-10T06:06:18.586Z,53.1
2018-11-10T06:07:08.175Z,53.1
2018-11-10T06:07:57.946Z,53.1
2018-11-10T06:08:47.417Z,53.1
2018-11-10T06:09:39.414Z,53.1
2018-11-10T06:10:31.490Z,53.1
2018-11-10T06:11:18.723Z,53
2018-11-10T06:12:08.119Z,53
2018-11-10T06:12:58.757Z,53
2018-11-10T06:13:48.855Z,53
2018-11-10T06:14:38.405Z,53
2018-11-10T06:15:28.443Z,53
2018-11-10T06:16:18.507Z,53
2018-11-10T06:17:09.180Z,53
2018-11-10T06:17:58.336Z,53
2018-11-10T06:18:49.748Z,52.9
2018-11-10T06:19:38.677Z,52.9
2018-11-10T06:20:29.552Z,52.9
2018-11-10T06:21:19.127Z,52.9
2018-11-10T06:22:09.416Z,52.9
2018-11-10T06:22:58.805Z,52.9
2018-11-10T06:23:48.932Z,52.9
2018-11-10T06:24:39.922Z,52.9
2018-11-10T06:25:30.260Z,52.9
2018-11-10T06:26:19.539Z,52.9
2018-11-10T06:27:09.530Z,52.9
2018-11-10T06:27:59.625Z,52.9
2018-11-10T06:28:50.737Z,52.9
2018-11-10T06:29:39.668Z,52.9
2018-11-10T06:30:30.297Z,52.9
2018-11-10T06:31:19.892Z,52.9
2018-11-10T06:32:10.974Z,52.8
2018-11-10T06:32:59.941Z,52.8
2018-11-10T06:33:50.096Z,52.8
2018-11-10T06:34:40.702Z,52.8
2018-11-10T06:35:30.409Z,52.8
2018-11-10T06:36:20.559Z,52.8
2018-11-10T06:37:10.472Z,52.8
2018-11-10T06:38:00.361Z,52.8
2018-11-10T06:38:50.881Z,52.8
2018-11-10T06:39:40.999Z,52.8
2018-11-10T06:40:31.031Z,52.8
2018-11-10T06:41:20.253Z,52.8
2018-11-10T06:42:11.617Z,52.8
2018-11-10T06:43:01.038Z,52.8
2018-11-10T06:43:50.388Z,52.8
2018-11-10T06:44:41.048Z,52.8
2018-11-10T06:45:30.838Z,52.7
2018-11-10T06:46:20.583Z,52.7
2018-11-10T06:47:11.877Z,52.8
2018-11-10T06:48:01.345Z,52.7
2018-11-10T06:48:51.156Z,52.7
2018-11-10T06:49:41.946Z,52.7
2018-11-10T06:50:31.728Z,52.7
2018-11-10T06:51:21.542Z,52.7
2018-11-10T06:52:10.685Z,52.7
2018-11-10T06:53:03.388Z,52.7
2018-11-10T06:53:51.416Z,52.6
2018-11-10T06:54:42.291Z,52.6
2018-11-10T06:55:31.048Z,52.6
2018-11-10T06:56:21.605Z,52.6
2018-11-10T06:57:11.558Z,52.6
2018-11-10T06:58:01.138Z,52.6
2018-11-10T06:58:52.383Z,52.6
2018-11-10T06:59:42.360Z,52.6
2018-11-10T07:00:31.600Z,52.6
2018-11-10T07:01:21.125Z,52.6
2018-11-10T07:02:11.710Z,52.6
2018-11-10T07:03:01.781Z,52.6
2018-11-10T07:03:52.215Z,52.6
2018-11-10T07:04:41.965Z,52.6
2018-11-10T07:05:32.810Z,52.6
2018-11-10T07:06:22.592Z,52.6
2018-11-10T07:07:12.372Z,52.6
2018-11-10T07:08:03.530Z,52.6
2018-11-10T07:08:52.834Z,52.6
2018-11-10T07:09:43.379Z,52.6
2018-11-10T07:10:32.929Z,52.5
2018-11-10T07:11:22.751Z,52.5
2018-11-10T07:12:13.032Z,52.5
2018-11-10T07:13:03.189Z,52.5
2018-11-10T07:13:53.376Z,52.5
2018-11-10T07:14:42.422Z,52.5
2018-11-10T07:15:33.221Z,52.5
2018-11-10T07:16:23.134Z,52.5
2018-11-10T07:17:13.757Z,52.5
2018-11-10T07:18:03.623Z,52.5
2018-11-10T07:18:54.109Z,52.5
2018-11-10T07:19:43.116Z,52.5
2018-11-10T07:20:33.205Z,52.4
2018-11-10T07:21:23.661Z,52.4
2018-11-10T07:22:13.421Z,52.4
2018-11-10T07:23:03.593Z,52.4
2018-11-10T07:23:53.895Z,52.4
2018-11-10T07:24:43.808Z,52.4
2018-11-10T07:25:34.329Z,52.4
2018-11-10T07:26:24.319Z,52.4
2018-11-10T07:27:13.022Z,52.4
2018-11-10T07:28:03.680Z,52.4
2018-11-10T07:38:04.591Z,52.3
2018-11-10T07:38:55.462Z,52.3
2018-11-10T07:39:45.259Z,52.3
2018-11-10T07:40:35.627Z,52.3
2018-11-10T07:41:25.396Z,52.3
2018-11-10T07:42:15.169Z,52.3
2018-11-10T07:43:05.579Z,52.3
2018-11-10T07:43:55.548Z,52.3
2018-11-10T07:44:45.819Z,52.3
2018-11-10T07:45:35.966Z,52.3
2018-11-10T07:46:25.172Z,52.3
2018-11-10T07:47:15.565Z,52.3
2018-11-10T07:48:05.089Z,52.3
2018-11-10T07:48:54.494Z,52.3
2018-11-10T07:49:46.026Z,52.3
2018-11-10T07:50:35.789Z,52.3
2018-11-10T07:51:27.115Z,52.3
2018-11-10T07:52:15.331Z,52.3
2018-11-10T07:53:06.255Z,52.3
2018-11-10T07:53:56.077Z,52.3
2018-11-10T07:54:46.168Z,52.3
2018-11-10T07:55:36.933Z,52.2
2018-11-10T07:56:25.976Z,52.2
2018-11-10T07:57:16.515Z,52.2
2018-11-10T07:58:06.583Z,52.2
2018-11-10T07:58:56.695Z,52.2
2018-11-10T07:59:45.590Z,52.2
2018-11-10T08:00:36.498Z,52.2
2018-11-10T08:01:26.302Z,52.2
2018-11-10T08:02:16.665Z,52.2
2018-11-10T08:03:06.963Z,52.1
2018-11-10T08:03:56.780Z,52.2
2018-11-10T08:04:46.022Z,52.2
2018-11-10T08:05:37.422Z,52.1
2018-11-10T08:06:26.038Z,52.1
2018-11-10T08:07:16.370Z,52.1
2018-11-10T08:08:07.345Z,52.1
2018-11-10T08:08:57.424Z,52.1
2018-11-10T08:09:47.448Z,52.1
2018-11-10T08:10:37.512Z,52.1
2018-11-10T08:11:26.992Z,52.1
2018-11-10T08:12:17.382Z,52.1
2018-11-10T08:13:07.195Z,52.1
2018-11-10T08:13:58.043Z,52.1
2018-11-10T08:14:47.381Z,52.1
2018-11-10T08:15:37.659Z,52.1
2018-11-10T08:16:26.669Z,52.1
2018-11-10T08:17:17.117Z,52.1
2018-11-10T08:18:07.267Z,52.1
2018-11-10T08:18:57.482Z,52.1
2018-11-10T08:19:48.504Z,52.1
2018-11-10T08:20:38.189Z,52.1
2018-11-10T08:21:27.521Z,52.1
2018-11-10T08:22:18.036Z,52
2018-11-10T08:23:07.832Z,52.1
2018-11-10T08:23:58.187Z,52.1
2018-11-10T08:24:48.667Z,52
2018-11-10T08:25:38.804Z,52
2018-11-10T08:26:28.352Z,52
2018-11-10T08:27:18.391Z,52
2018-11-10T08:28:08.506Z,52
2018-11-10T08:28:59.088Z,52
2018-11-10T08:29:48.654Z,52
2018-11-10T08:30:38.146Z,52
2018-11-10T08:40:38.796Z,51.9
2018-11-10T08:41:28.824Z,51.9
2018-11-10T08:42:19.460Z,51.9
2018-11-10T08:43:09.332Z,51.9
2018-11-10T08:43:58.828Z,51.9
2018-11-10T08:44:49.223Z,51.9
2018-11-10T08:45:39.780Z,51.9
2018-11-10T08:46:29.516Z,51.9
2018-11-10T08:47:19.345Z,51.8
2018-11-10T08:48:08.883Z,51.8
2018-11-10T08:48:59.525Z,51.9
2018-11-10T08:49:49.752Z,51.9
2018-11-10T08:52:18.942Z,52
2018-11-10T09:08:59.194Z,53.3
2018-11-10T09:09:48.998Z,53.4
2018-11-10T09:10:39.254Z,53.4
2018-11-10T09:11:28.339Z,53.5
2018-11-10T09:12:19.446Z,53.6
2018-11-10T09:13:08.850Z,53.6
2018-11-10T09:13:59.283Z,53.7
2018-11-10T09:14:49.664Z,53.8
2018-11-10T09:15:39.336Z,53.9
2018-11-10T09:16:29.396Z,53.9
2018-11-10T09:17:19.693Z,53.9
2018-11-10T09:18:09.680Z,54
2018-11-10T09:18:58.898Z,54.1
2018-11-10T09:19:49.900Z,54.1
2018-11-10T09:20:39.261Z,54.2
2018-11-10T09:21:31.511Z,54.3
2018-11-10T09:22:20.103Z,54.4
2018-11-10T09:23:09.834Z,54.5
2018-11-10T09:23:59.220Z,54.6
2018-11-10T09:24:50.192Z,54.7
2018-11-10T09:25:40.582Z,54.8
2018-11-10T09:26:29.831Z,54.8
2018-11-10T09:27:20.465Z,54.9
2018-11-10T09:28:10.278Z,54.9
2018-11-10T09:29:00.519Z,55
2018-11-10T09:29:49.180Z,55
2018-11-10T09:30:39.826Z,55.1
2018-11-10T09:31:30.140Z,55.3
2018-11-10T09:32:19.753Z,55.3
2018-11-10T09:33:10.568Z,55.3
2018-11-10T09:34:00.835Z,55.4
2018-11-10T09:34:50.539Z,55.5
2018-11-10T09:35:40.459Z,55.6
2018-11-10T09:36:31.022Z,55.7
2018-11-10T09:37:21.167Z,55.8
2018-11-10T09:38:11.033Z,55.9
2018-11-10T09:39:00.217Z,55.9
2018-11-10T09:39:51.618Z,55.9
2018-11-10T09:40:40.769Z,56
2018-11-10T09:41:30.882Z,56.1
2018-11-10T09:42:21.799Z,56.1
2018-11-10T09:43:10.455Z,56.3
2018-11-10T09:44:01.647Z,56.3
2018-11-10T09:44:51.222Z,56.4
2018-11-10T09:45:40.458Z,56.4
2018-11-10T09:46:32.150Z,56.5
2018-11-10T09:47:21.027Z,56.6
2018-11-10T09:48:11.173Z,56.6
2018-11-10T09:49:01.151Z,56.8
2018-11-10T09:49:52.188Z,56.8
2018-11-10T09:50:41.730Z,56.9
2018-11-10T09:51:32.212Z,56.9
2018-11-10T09:52:22.237Z,57
2018-11-10T09:53:12.303Z,57.1
2018-11-10T09:54:01.900Z,57.2
2018-11-10T09:54:52.424Z,57.3
2018-11-10T09:55:41.903Z,57.3
2018-11-10T09:56:32.223Z,57.4
2018-11-10T09:57:22.319Z,57.5
2018-11-10T09:58:11.593Z,57.5
2018-11-10T09:59:02.121Z,57.6
2018-11-10T09:59:53.590Z,57.6
2018-11-10T10:01:34.925Z,57.8
2018-11-10T10:02:26.839Z,57.9
2018-11-10T10:03:11.976Z,57.9
2018-11-10T10:04:02.803Z,58
2018-11-10T10:04:52.368Z,58.2
2018-11-10T10:05:42.717Z,58.3
2018-11-10T10:06:33.245Z,58.3
2018-11-10T10:07:23.063Z,58.3
2018-11-10T10:08:12.138Z,58.4
2018-11-10T10:09:04.172Z,58.5
2018-11-10T10:09:53.590Z,58.5
2018-11-10T10:10:43.087Z,58.6
2018-11-10T10:11:33.860Z,58.7
2018-11-10T10:12:22.850Z,58.8
2018-11-10T10:13:14.038Z,58.8
2018-11-10T10:14:03.251Z,58.9
2018-11-10T10:14:52.527Z,58.9
2018-11-10T10:15:43.150Z,59
2018-11-10T10:16:34.235Z,59.1
2018-11-10T10:17:24.057Z,59.1
2018-11-10T10:18:13.543Z,59.2
2018-11-10T10:19:03.605Z,59.3
2018-11-10T10:19:54.005Z,59.3
2018-11-10T10:20:43.612Z,59.3
2018-11-10T10:21:34.498Z,59.4
2018-11-10T10:22:24.675Z,59.5
2018-11-10T10:23:12.149Z,59.6
2018-11-10T10:24:03.947Z,59.6
2018-11-10T10:24:53.255Z,59.7
2018-11-10T10:25:44.132Z,59.8
2018-11-10T10:26:34.219Z,59.9
2018-11-10T10:27:23.712Z,59.9
2018-11-10T10:28:14.180Z,59.9
2018-11-10T10:29:06.024Z,60.1
2018-11-10T10:29:54.754Z,60.1
2018-11-10T10:30:43.864Z,60.3
2018-11-10T10:31:34.094Z,60.3
2018-11-10T10:32:23.870Z,60.3
2018-11-10T10:33:14.704Z,60.4
2018-11-10T10:34:05.652Z,60.4
2018-11-10T10:34:55.825Z,60.5
2018-11-10T10:35:45.796Z,60.6
2018-11-10T10:36:34.176Z,60.6
2018-11-10T10:37:25.230Z,60.6
2018-11-10T10:38:15.574Z,60.7
2018-11-10T10:39:05.066Z,60.8
2018-11-10T10:39:54.598Z,60.8
2018-11-10T10:40:45.439Z,60.9
2018-11-10T10:41:36.032Z,60.9
2018-11-10T10:42:25.533Z,60.9
2018-11-10T10:43:16.018Z,61
2018-11-10T10:44:05.204Z,61
2018-11-10T10:44:55.466Z,61.1
2018-11-10T10:45:46.101Z,61.1
2018-11-10T10:46:35.296Z,61.2
2018-11-10T10:47:26.018Z,61.3
2018-11-10T10:48:15.003Z,61.3
2018-11-10T10:49:05.946Z,61.4
2018-11-10T10:49:56.192Z,61.4
2018-11-10T10:50:45.964Z,61.5
2018-11-10T10:51:36.240Z,61.6
2018-11-10T10:52:26.275Z,61.6
2018-11-10T10:53:16.620Z,61.6
2018-11-10T10:54:06.363Z,61.7
2018-11-10T10:54:57.021Z,61.8
2018-11-10T10:55:46.765Z,61.8
2018-11-10T10:56:36.770Z,61.9
2018-11-10T10:57:26.418Z,61.9
2018-11-10T10:58:16.705Z,62
2018-11-10T10:59:05.990Z,62.1
2018-11-10T10:59:56.605Z,62.1
2018-11-10T11:00:45.633Z,62.2
2018-11-10T11:01:37.312Z,62.3
2018-11-10T11:02:26.252Z,62.3
2018-11-10T11:03:16.561Z,62.4
2018-11-10T11:04:07.153Z,62.4
2018-11-10T11:04:57.225Z,62.5
2018-11-10T11:05:47.540Z,62.5
2018-11-10T11:06:37.824Z,62.6
2018-11-10T11:07:27.225Z,62.6
2018-11-10T11:08:16.975Z,62.7
2018-11-10T11:09:07.427Z,62.7
2018-11-10T11:09:57.781Z,62.7
2018-11-10T11:10:47.346Z,62.8
2018-11-10T11:11:37.459Z,62.8
2018-11-10T11:12:26.861Z,62.9
2018-11-10T11:13:17.587Z,62.9
2018-11-10T11:14:07.287Z,62.9
2018-11-10T11:14:58.857Z,63
2018-11-10T11:15:49.388Z,63
2018-11-10T11:16:37.492Z,63.1
2018-11-10T11:17:27.526Z,63.1
2018-11-10T11:18:17.277Z,63.1
2018-11-10T11:19:06.940Z,63.2
2018-11-10T11:19:57.691Z,63.3
2018-11-10T11:20:48.051Z,63.3
2018-11-10T11:21:38.383Z,63.3
2018-11-10T11:22:27.687Z,63.3
2018-11-10T11:23:18.849Z,63.4
2018-11-10T11:24:07.961Z,63.4
2018-11-10T11:24:57.852Z,63.4
2018-11-10T11:25:47.628Z,63.5
2018-11-10T11:26:38.313Z,63.5
2018-11-10T11:27:28.628Z,63.6
2018-11-10T11:28:18.590Z,63.6
2018-11-10T11:29:09.192Z,63.7
2018-11-10T11:29:59.236Z,63.7
2018-11-10T11:30:48.314Z,63.7
2018-11-10T11:31:38.515Z,63.8
2018-11-10T11:32:28.788Z,63.8
2018-11-10T11:33:19.056Z,63.8
2018-11-10T11:34:08.718Z,63.9
2018-11-10T11:34:59.242Z,63.9
2018-11-10T11:35:49.210Z,63.9
2018-11-10T11:36:39.088Z,63.9
2018-11-10T11:37:29.805Z,63.9
2018-11-10T11:38:19.337Z,64
2018-11-10T11:39:09.130Z,64.1
2018-11-10T11:39:58.463Z,64.1
2018-11-10T11:40:49.516Z,64.1
2018-11-10T11:41:40.391Z,64.1
2018-11-10T11:42:30.429Z,64.1
2018-11-10T11:43:18.600Z,64.1
2018-11-10T11:44:08.472Z,64.2
2018-11-10T11:44:59.777Z,64.2
2018-11-10T11:45:49.770Z,64.2
2018-11-10T11:46:40.835Z,64.2
2018-11-10T11:47:30.825Z,64.3
2018-11-10T11:48:20.138Z,64.3
2018-11-10T11:49:10.500Z,64.3
2018-11-10T11:49:59.556Z,64.3
2018-11-10T11:50:50.551Z,64.3
2018-11-10T11:51:40.562Z,64.3
2018-11-10T11:52:30.909Z,64.3
2018-11-10T11:53:20.987Z,64.4
2018-11-10T11:54:09.795Z,64.4
2018-11-10T11:55:01.067Z,64.4
2018-11-10T11:55:50.084Z,64.3
2018-11-10T11:56:40.239Z,64.4
2018-11-10T11:57:31.631Z,64.4
2018-11-10T11:58:22.459Z,64.4
2018-11-10T11:59:11.376Z,64.4
2018-11-10T12:00:01.168Z,64.4
2018-11-10T12:00:51.332Z,64.4
2018-11-10T12:01:41.350Z,64.4
2018-11-10T12:02:31.246Z,64.4
2018-11-10T12:03:20.619Z,64.4
2018-11-10T12:04:11.664Z,64.4
2018-11-10T12:05:01.060Z,64.4
2018-11-10T12:05:51.119Z,64.5
2018-11-10T12:06:40.756Z,64.5
2018-11-10T12:07:31.994Z,64.5
2018-11-10T12:08:21.074Z,64.5
2018-11-10T12:09:11.624Z,64.5
2018-11-10T12:10:02.467Z,64.5
2018-11-10T12:10:51.859Z,64.5
2018-11-10T12:11:41.584Z,64.6
2018-11-10T12:12:32.354Z,64.6
2018-11-10T12:13:22.399Z,64.6
2018-11-10T12:14:11.417Z,64.6
2018-11-10T12:15:02.298Z,64.6
2018-11-10T12:15:52.319Z,64.6
2018-11-10T12:16:42.890Z,64.6
2018-11-10T12:17:32.412Z,64.6
2018-11-10T12:18:22.494Z,64.6
2018-11-10T12:19:12.073Z,64.6
2018-11-10T12:20:02.432Z,64.6